Time;durP1;ratioP1;P1;durP2;ratioP2;P2;SDS_P1;SDS_P2;PMS_P1;PMS_P2;Temp;Humidity;BMP_temperature;BMP_pressure;BME280_temperature;BME280_humidity;BME280_pressure;Samples;Min_cycle;Max_cycle;Signal;HPM_P1;HPM_P2
2023/12/21 00:00:18;;;;;;;0.20;0.20;;;9.70;99.90;;;;;;5074872;28;20400;-76
2023/12/21 00:02:44;;;;;;;0.20;0.20;;;9.70;99.90;;;;;;5073884;28;20045;-75
2023/12/21 00:05:10;;;;;;;0.20;0.20;;;9.70;99.90;;;;;;5078748;28;20043;-76
2023/12/21 00:07:35;;;;;;;0.20;0.20;;;9.70;99.90;;;;;;5073124;28;20392;-76
2023/12/21 00:10:01;;;;;;;0.20;0.20;;;9.70;99.90;;;;;;5061523;28;20059;-76
2023/12/21 00:12:27;;;;;;;0.20;0.20;;;9.70;99.90;;;;;;5069321;28;20749;-76
2023/12/21 00:14:52;;;;;;;0.20;0.20;;;9.80;99.90;;;;;;5071807;28;20430;-75
2023/12/21 00:17:18;;;;;;;0.20;0.20;;;9.70;99.90;;;;;;5069279;28;20361;-76
2023/12/21 00:19:43;;;;;;;0.20;0.20;;;9.80;99.90;;;;;;5067866;28;20048;-76
2023/12/21 00:22:09;;;;;;;0.20;0.20;;;9.70;99.90;;;;;;5069037;28;20094;-75
2023/12/21 00:24:35;;;;;;;0.10;0.10;;;9.70;99.90;;;;;;5065827;28;20146;-76
2023/12/21 00:27:00;;;;;;;0.10;0.10;;;9.70;99.90;;;;;;5084131;28;20458;-75
2023/12/21 00:29:26;;;;;;;0.10;0.10;;;9.80;99.90;;;;;;5069400;28;20416;-75
2023/12/21 00:31:52;;;;;;;0.10;0.10;;;9.80;99.90;;;;;;5067165;28;20041;-76
2023/12/21 00:34:17;;;;;;;0.20;0.20;;;9.80;99.90;;;;;;5069302;28;20040;-75
2023/12/21 00:36:45;;;;;;;0.20;0.20;;;9.70;99.90;;;;;;5069869;28;20037;-75
2023/12/21 00:39:10;;;;;;;0.20;0.20;;;9.70;99.90;;;;;;5065103;28;20049;-75
2023/12/21 00:41:36;;;;;;;0.20;0.20;;;9.80;99.90;;;;;;5060260;28;20497;-75
2023/12/21 00:44:02;;;;;;;0.20;0.20;;;9.80;99.90;;;;;;5063806;28;20411;-75
2023/12/21 00:46:28;;;;;;;0.20;0.20;;;9.80;99.90;;;;;;5067261;28;20047;-75
2023/12/21 00:48:53;;;;;;;0.20;0.20;;;9.80;99.90;;;;;;5064816;28;20048;-76
2023/12/21 00:51:19;;;;;;;0.20;0.20;;;9.80;99.90;;;;;;5066795;28;20076;-76
2023/12/21 00:53:45;;;;;;;0.20;0.20;;;9.80;99.90;;;;;;5068784;28;20639;-76
2023/12/21 00:56:10;;;;;;;0.20;0.20;;;9.80;99.90;;;;;;5067196;28;20472;-75
2023/12/21 00:58:36;;;;;;;0.15;0.15;;;9.80;99.90;;;;;;5067963;28;20047;-75
2023/12/21 01:01:02;;;;;;;0.93;0.52;;;9.80;99.90;;;;;;5067629;28;20044;-76
2023/12/21 01:03:27;;;;;;;0.20;0.20;;;9.80;99.90;;;;;;5085166;28;20097;-75
2023/12/21 01:05:53;;;;;;;0.10;0.10;;;9.90;99.90;;;;;;5068105;28;20470;-75
2023/12/21 01:08:18;;;;;;;0.20;0.20;;;9.80;99.90;;;;;;5068566;28;20807;-76
2023/12/21 01:10:45;;;;;;;0.20;0.20;;;9.80;99.90;;;;;;5064901;28;20060;-75
2023/12/21 01:13:11;;;;;;;0.10;0.10;;;9.80;99.90;;;;;;5054582;28;20039;-75
2023/12/21 01:15:36;;;;;;;0.20;0.20;;;9.80;99.90;;;;;;5067634;28;20066;-76
2023/12/21 01:18:02;;;;;;;0.20;0.20;;;9.90;99.90;;;;;;5067878;28;20500;-76
2023/12/21 01:20:28;;;;;;;0.20;0.20;;;9.90;99.90;;;;;;5067547;28;20074;-76
2023/12/21 01:22:53;;;;;;;0.20;0.20;;;9.80;99.90;;;;;;5062616;28;20083;-75
2023/12/21 01:25:19;;;;;;;0.20;0.20;;;9.80;99.90;;;;;;5067793;28;20037;-76
2023/12/21 01:27:45;;;;;;;0.20;0.20;;;9.90;99.90;;;;;;5066774;28;20131;-76
2023/12/21 01:30:11;;;;;;;0.15;0.15;;;9.90;99.90;;;;;;5067575;28;20072;-76
2023/12/21 01:32:37;;;;;;;0.20;0.20;;;9.90;99.90;;;;;;5074388;28;20041;-76
2023/12/21 01:35:02;;;;;;;0.20;0.20;;;9.90;99.90;;;;;;5067261;28;20132;-76
2023/12/21 01:37:28;;;;;;;0.20;0.20;;;9.80;99.90;;;;;;5063872;28;20048;-76
2023/12/21 01:39:54;;;;;;;0.20;0.20;;;9.80;99.90;;;;;;5084320;28;20071;-76
2023/12/21 01:42:19;;;;;;;0.20;0.20;;;9.80;99.90;;;;;;5066573;28;20476;-76
2023/12/21 01:44:45;;;;;;;0.10;0.10;;;9.80;99.90;;;;;;5069143;28;20062;-77
2023/12/21 01:47:11;;;;;;;0.20;0.20;;;9.70;99.90;;;;;;5067360;28;20036;-77
2023/12/21 01:49:38;;;;;;;0.20;0.20;;;9.80;99.90;;;;;;5056545;28;20052;-76
2023/12/21 01:52:05;;;;;;;0.20;0.20;;;9.80;99.90;;;;;;5046553;28;20051;-76
2023/12/21 01:54:31;;;;;;;0.20;0.20;;;9.70;99.90;;;;;;5064512;28;20052;-76
2023/12/21 01:56:57;;;;;;;0.17;0.17;;;9.70;99.90;;;;;;5067224;28;20064;-76
2023/12/21 01:59:23;;;;;;;0.20;0.20;;;9.70;99.90;;;;;;5068938;28;20072;-76
2023/12/21 02:01:49;;;;;;;0.20;0.20;;;9.70;99.90;;;;;;5067717;28;20044;-76
2023/12/21 02:04:15;;;;;;;0.20;0.20;;;9.60;99.90;;;;;;5066267;28;20059;-77
2023/12/21 02:06:40;;;;;;;0.13;0.13;;;9.60;99.90;;;;;;5076375;28;20045;-76
2023/12/21 02:09:07;;;;;;;0.20;0.20;;;9.70;99.90;;;;;;5082582;28;20040;-76
2023/12/21 02:11:32;;;;;;;0.20;0.20;;;9.60;99.90;;;;;;5064947;28;20052;-76
2023/12/21 02:13:58;;;;;;;0.20;0.20;;;9.60;99.90;;;;;;5066386;28;20036;-75
2023/12/21 02:16:31;;;;;;;0.20;0.20;;;9.60;99.90;;;;;;5064881;28;20538;-75
2023/12/21 02:18:57;;;;;;;0.10;0.10;;;9.60;99.90;;;;;;5058320;28;20569;-75
2023/12/21 02:21:23;;;;;;;0.20;0.20;;;9.70;99.90;;;;;;5079366;28;20048;-75
2023/12/21 02:23:52;;;;;;;0.10;0.10;;;9.60;99.90;;;;;;5066713;28;20044;-75
2023/12/21 02:26:18;;;;;;;0.20;0.20;;;9.60;99.90;;;;;;5064768;28;20056;-75
2023/12/21 02:28:44;;;;;;;0.20;0.20;;;9.60;99.90;;;;;;5067660;28;20510;-75
2023/12/21 02:31:09;;;;;;;0.20;0.20;;;9.50;99.90;;;;;;5069947;28;20036;-75
2023/12/21 02:33:35;;;;;;;0.20;0.20;;;9.50;99.90;;;;;;5066487;28;20479;-75
2023/12/21 02:36:03;;;;;;;0.20;0.20;;;9.60;99.90;;;;;;5083231;28;20040;-75
2023/12/21 02:38:28;;;;;;;0.20;0.20;;;9.50;99.90;;;;;;5064357;28;20057;-75
2023/12/21 02:40:54;;;;;;;0.13;0.13;;;9.60;99.90;;;;;;5065921;28;20044;-75
2023/12/21 02:43:19;;;;;;;0.20;0.20;;;9.60;99.90;;;;;;5065460;28;20139;-75
2023/12/21 02:45:45;;;;;;;0.10;0.10;;;9.50;99.90;;;;;;5067162;28;20048;-75
2023/12/21 02:48:11;;;;;;;0.10;0.10;;;9.60;99.90;;;;;;5066037;28;20048;-74
2023/12/21 02:50:36;;;;;;;0.20;0.20;;;9.50;99.90;;;;;;5061821;28;20454;-75
2023/12/21 02:53:02;;;;;;;0.20;0.20;;;9.60;99.90;;;;;;5061830;28;20040;-74
2023/12/21 02:55:28;;;;;;;0.20;0.20;;;9.60;99.90;;;;;;5066040;28;20041;-74
2023/12/21 02:57:53;;;;;;;0.20;0.20;;;9.50;99.90;;;;;;5068043;28;20045;-74
2023/12/21 03:00:19;;;;;;;0.15;0.15;;;9.50;99.90;;;;;;5063946;28;20040;-74
2023/12/21 03:02:45;;;;;;;0.20;0.20;;;9.50;99.90;;;;;;5067420;28;20044;-74
2023/12/21 03:05:10;;;;;;;0.20;0.20;;;9.50;99.90;;;;;;5067388;28;20044;-74
2023/12/21 03:07:36;;;;;;;0.20;0.20;;;9.50;99.90;;;;;;5057732;28;20040;-75
2023/12/21 03:10:02;;;;;;;0.10;0.10;;;9.50;99.90;;;;;;5068292;28;20141;-75
2023/12/21 03:12:28;;;;;;;0.20;0.20;;;9.50;99.90;;;;;;5069900;28;20032;-75
2023/12/21 03:14:53;;;;;;;0.15;0.15;;;9.50;99.90;;;;;;5070196;28;20052;-74
2023/12/21 03:17:19;;;;;;;0.20;0.20;;;9.50;99.90;;;;;;5070487;28;20067;-75
2023/12/21 03:19:45;;;;;;;0.22;0.22;;;9.50;99.90;;;;;;5067475;28;20043;-74
2023/12/21 03:22:11;;;;;;;0.20;0.20;;;9.50;99.90;;;;;;5070267;28;20074;-74
2023/12/21 03:24:36;;;;;;;0.20;0.20;;;9.50;99.90;;;;;;5070100;28;20116;-75
2023/12/21 03:27:03;;;;;;;0.20;0.20;;;9.60;99.90;;;;;;5069270;28;20123;-74
2023/12/21 03:29:28;;;;;;;0.20;0.20;;;9.50;99.90;;;;;;5070077;28;20055;-74
2023/12/21 03:31:56;;;;;;;1.08;0.50;;;9.50;99.90;;;;;;5070807;28;20044;-74
2023/12/21 03:34:22;;;;;;;0.20;0.20;;;9.60;99.90;;;;;;5087207;28;20065;-76
2023/12/21 03:36:48;;;;;;;0.20;0.20;;;9.50;99.90;;;;;;5088460;28;20384;-75
2023/12/21 03:39:13;;;;;;;0.20;0.20;;;8.70;99.90;;;;;;5077199;28;20049;-75
2023/12/21 03:41:39;;;;;;;0.10;0.10;;;9.50;99.90;;;;;;5068725;28;20044;-75
2023/12/21 03:44:05;;;;;;;0.20;0.20;;;9.50;99.90;;;;;;5070331;28;20040;-75
2023/12/21 03:46:31;;;;;;;0.20;0.20;;;9.50;99.90;;;;;;5070217;28;20477;-74
2023/12/21 03:48:56;;;;;;;0.20;0.20;;;9.50;99.90;;;;;;5069136;28;20149;-74
2023/12/21 03:51:22;;;;;;;0.20;0.20;;;9.50;99.90;;;;;;5062672;28;20040;-74
2023/12/21 03:53:48;;;;;;;0.20;0.20;;;9.50;99.90;;;;;;5070462;28;20083;-74
2023/12/21 03:56:14;;;;;;;0.20;0.20;;;9.60;99.90;;;;;;5084552;28;20449;-74
2023/12/21 03:58:39;;;;;;;0.20;0.20;;;9.50;99.90;;;;;;5070462;28;20540;-74
2023/12/21 04:01:05;;;;;;;0.20;0.20;;;9.50;99.90;;;;;;5069876;28;20194;-74
2023/12/21 04:03:30;;;;;;;0.10;0.10;;;9.50;99.90;;;;;;5056679;28;20106;-74
2023/12/21 04:05:56;;;;;;;0.20;0.20;;;9.50;99.90;;;;;;5063158;28;20476;-74
2023/12/21 04:08:22;;;;;;;0.20;0.20;;;9.50;99.90;;;;;;5084621;28;20098;-74
2023/12/21 04:10:48;;;;;;;0.10;0.10;;;9.60;99.90;;;;;;5068031;28;20049;-74
2023/12/21 04:13:14;;;;;;;0.20;0.20;;;8.70;99.90;;;;;;5055923;28;20056;-74
2023/12/21 04:15:40;;;;;;;0.20;0.20;;;9.50;99.90;;;;;;5068628;28;20476;-75
2023/12/21 04:18:05;;;;;;;0.20;0.20;;;9.50;99.90;;;;;;5068953;28;20037;-74
2023/12/21 04:20:31;;;;;;;0.10;0.10;;;9.50;99.90;;;;;;5072023;28;20352;-74
2023/12/21 04:22:57;;;;;;;0.20;0.20;;;9.40;99.90;;;;;;5082329;28;20039;-74
2023/12/21 04:25:22;;;;;;;0.20;0.20;;;9.50;99.90;;;;;;5073662;28;20479;-74
2023/12/21 04:27:48;;;;;;;0.20;0.20;;;9.50;99.90;;;;;;5072597;28;20064;-74
2023/12/21 04:30:14;;;;;;;0.20;0.20;;;10.30;99.90;;;;;;5068358;28;20044;-74
2023/12/21 04:32:41;;;;;;;0.20;0.20;;;9.50;99.90;;;;;;5069943;28;20086;-74
2023/12/21 04:35:10;;;;;;;0.20;0.20;;;9.50;99.90;;;;;;5068653;28;20056;-74
2023/12/21 04:37:35;;;;;;;0.20;0.20;;;9.60;99.90;;;;;;5073240;28;20052;-74
2023/12/21 04:40:02;;;;;;;0.20;0.20;;;9.50;99.90;;;;;;5069669;28;20106;-74
2023/12/21 04:42:28;;;;;;;0.20;0.20;;;9.50;99.90;;;;;;5068761;28;20047;-74
2023/12/21 04:44:54;;;;;;;0.10;0.10;;;9.50;99.90;;;;;;5069746;28;20078;-74
2023/12/21 04:47:19;;;;;;;1.58;0.35;;;9.50;99.90;;;;;;5069814;28;20041;-73
2023/12/21 04:49:45;;;;;;;0.20;0.20;;;9.50;99.90;;;;;;5078407;28;20094;-74
2023/12/21 04:52:11;;;;;;;0.20;0.20;;;9.50;99.90;;;;;;5071295;28;20049;-73
2023/12/21 04:54:36;;;;;;;0.20;0.20;;;9.50;99.90;;;;;;5073329;28;20045;-74
2023/12/21 04:57:02;;;;;;;0.20;0.20;;;9.50;99.90;;;;;;5068750;28;20148;-74
2023/12/21 04:59:28;;;;;;;0.20;0.20;;;9.40;99.90;;;;;;5072438;28;20032;-74
2023/12/21 05:01:56;;;;;;;0.20;0.20;;;9.50;99.90;;;;;;5068862;28;20042;-73
2023/12/21 05:04:22;;;;;;;0.20;0.20;;;9.40;99.90;;;;;;5074506;28;20642;-74
2023/12/21 05:06:47;;;;;;;0.20;0.20;;;9.50;99.90;;;;;;5069151;28;20146;-74
2023/12/21 05:09:13;;;;;;;0.20;0.20;;;9.50;99.90;;;;;;5077651;28;20044;-74
2023/12/21 05:11:38;;;;;;;0.20;0.20;;;9.50;99.90;;;;;;5068044;28;20113;-74
2023/12/21 05:14:04;;;;;;;0.20;0.20;;;9.50;99.90;;;;;;5074484;28;20548;-73
2023/12/21 05:16:30;;;;;;;0.10;0.10;;;9.40;99.90;;;;;;5067146;28;20037;-74
2023/12/21 05:18:55;;;;;;;0.10;0.10;;;9.50;99.90;;;;;;5069952;28;20036;-74
2023/12/21 05:21:21;;;;;;;0.20;0.20;;;9.50;99.90;;;;;;5068903;28;20412;-74
2023/12/21 05:23:46;;;;;;;0.20;0.20;;;9.60;99.90;;;;;;5069090;28;20044;-74
2023/12/21 05:26:14;;;;;;;0.20;0.20;;;9.50;99.90;;;;;;5065828;28;20045;-74
2023/12/21 05:28:42;;;;;;;0.20;0.20;;;9.50;99.90;;;;;;5068633;28;20491;-74
2023/12/21 05:31:08;;;;;;;0.20;0.20;;;9.50;99.90;;;;;;5073507;28;20094;-73
2023/12/21 05:33:34;;;;;;;0.57;0.57;;;9.50;99.90;;;;;;5068188;28;20137;-73
2023/12/21 05:35:59;;;;;;;0.20;0.20;;;9.50;99.90;;;;;;5067191;28;20151;-73
2023/12/21 05:38:25;;;;;;;0.20;0.20;;;9.50;99.90;;;;;;5068700;28;20113;-74
2023/12/21 05:40:51;;;;;;;0.20;0.20;;;9.50;99.90;;;;;;5071661;28;20036;-73
2023/12/21 05:43:17;;;;;;;0.20;0.20;;;9.50;99.90;;;;;;5066585;28;20484;-74
2023/12/21 05:45:42;;;;;;;0.13;0.13;;;9.50;99.90;;;;;;5067900;28;20047;-74
2023/12/21 05:48:08;;;;;;;0.20;0.20;;;9.50;99.90;;;;;;5065860;28;20399;-73
2023/12/21 05:50:34;;;;;;;0.20;0.20;;;9.50;99.90;;;;;;5069077;28;20036;-74
2023/12/21 05:52:59;;;;;;;0.15;0.15;;;9.40;99.90;;;;;;5060841;28;20105;-74
2023/12/21 05:55:25;;;;;;;0.20;0.20;;;9.70;99.90;;;;;;5066605;28;20036;-74
2023/12/21 05:57:51;;;;;;;0.20;0.20;;;9.50;99.90;;;;;;5084702;28;20265;-74
2023/12/21 06:00:17;;;;;;;0.20;0.20;;;9.50;99.90;;;;;;5080602;28;20074;-74
2023/12/21 06:02:42;;;;;;;0.10;0.10;;;9.50;99.90;;;;;;5088235;28;20649;-74
2023/12/21 06:05:08;;;;;;;0.20;0.20;;;9.50;99.90;;;;;;5081539;28;20052;-74
2023/12/21 06:07:34;;;;;;;0.20;0.20;;;9.60;99.90;;;;;;5070062;28;20040;-73
2023/12/21 06:10:00;;;;;;;0.20;0.20;;;9.50;99.90;;;;;;5075402;28;20040;-74
2023/12/21 06:12:25;;;;;;;0.10;0.10;;;9.50;99.90;;;;;;5067985;28;20082;-73
2023/12/21 06:14:51;;;;;;;0.20;0.20;;;9.50;99.90;;;;;;5069118;28;20078;-74
2023/12/21 06:17:17;;;;;;;0.10;0.10;;;9.50;99.90;;;;;;5065734;28;20048;-73
2023/12/21 06:19:43;;;;;;;0.13;0.13;;;9.50;99.90;;;;;;5067705;28;20060;-74
2023/12/21 06:22:09;;;;;;;0.20;0.20;;;9.60;99.90;;;;;;5069147;28;20041;-74
2023/12/21 06:24:34;;;;;;;0.20;0.20;;;9.60;99.90;;;;;;5070789;28;20036;-74
2023/12/21 06:27:00;;;;;;;0.20;0.20;;;9.60;99.90;;;;;;5062358;28;20094;-74
2023/12/21 06:29:26;;;;;;;0.20;0.20;;;9.60;99.90;;;;;;5067073;28;20075;-74
2023/12/21 06:31:52;;;;;;;0.10;0.10;;;9.60;99.90;;;;;;5064577;28;20381;-74
2023/12/21 06:34:17;;;;;;;0.20;0.20;;;9.60;99.90;;;;;;5082572;28;20066;-74
2023/12/21 06:36:43;;;;;;;0.20;0.20;;;9.60;99.90;;;;;;5072781;28;20115;-74
2023/12/21 06:39:09;;;;;;;0.20;0.20;;;9.60;99.90;;;;;;5078304;28;20049;-74
2023/12/21 06:41:35;;;;;;;0.10;0.10;;;9.60;99.90;;;;;;5078641;28;20651;-73
2023/12/21 06:44:00;;;;;;;0.10;0.10;;;9.60;99.90;;;;;;5078498;28;20040;-75
2023/12/21 06:46:26;;;;;;;0.20;0.20;;;9.60;99.90;;;;;;5064499;28;20135;-74
2023/12/21 06:48:53;;;;;;;0.20;0.20;;;9.60;99.90;;;;;;5070185;28;20152;-75
2023/12/21 06:51:18;;;;;;;0.10;0.10;;;9.70;99.90;;;;;;5069351;28;20491;-75
2023/12/21 06:53:44;;;;;;;0.20;0.20;;;9.60;99.90;;;;;;5061563;28;20068;-75
2023/12/21 06:56:10;;;;;;;0.20;0.20;;;9.60;99.90;;;;;;5065591;28;20114;-75
2023/12/21 06:58:35;;;;;;;0.20;0.20;;;9.60;99.90;;;;;;5066910;28;20052;-75
2023/12/21 07:01:01;;;;;;;0.20;0.20;;;9.60;99.90;;;;;;5068564;28;20645;-74
2023/12/21 07:03:27;;;;;;;0.20;0.20;;;9.60;99.90;;;;;;5072008;28;20063;-74
2023/12/21 07:05:52;;;;;;;0.20;0.20;;;9.60;99.90;;;;;;5070133;28;20040;-74
2023/12/21 07:08:18;;;;;;;0.20;0.20;;;9.60;99.90;;;;;;5088012;28;20033;-75
2023/12/21 07:10:44;;;;;;;0.20;0.20;;;9.60;99.90;;;;;;5067469;28;20044;-74
2023/12/21 07:13:13;;;;;;;0.20;0.20;;;9.60;99.90;;;;;;5073943;28;20538;-74
2023/12/21 07:15:38;;;;;;;0.20;0.20;;;9.60;99.90;;;;;;5074864;28;20392;-74
2023/12/21 07:18:05;;;;;;;0.20;0.20;;;9.60;99.90;;;;;;5050340;28;20055;-75
2023/12/21 07:20:30;;;;;;;0.17;0.17;;;9.50;99.90;;;;;;5084874;28;20115;-74
2023/12/21 07:22:57;;;;;;;0.17;0.17;;;9.70;99.90;;;;;;5087550;28;20440;-74
2023/12/21 07:25:22;;;;;;;0.20;0.20;;;9.50;99.90;;;;;;5068727;28;20127;-74
2023/12/21 07:27:48;;;;;;;0.15;0.15;;;9.70;99.90;;;;;;5081596;28;20131;-75
2023/12/21 07:30:15;;;;;;;0.10;0.10;;;9.50;99.90;;;;;;5069985;28;20114;-74
2023/12/21 07:32:40;;;;;;;0.15;0.15;;;9.50;99.90;;;;;;5068900;28;20051;-75
2023/12/21 07:35:06;;;;;;;0.20;0.20;;;9.80;99.90;;;;;;5065677;28;20143;-74
2023/12/21 07:37:32;;;;;;;0.13;0.13;;;9.50;99.90;;;;;;5067771;28;20052;-74
2023/12/21 07:39:58;;;;;;;0.20;0.20;;;9.40;99.90;;;;;;5067504;28;20036;-75
2023/12/21 07:42:23;;;;;;;0.20;0.20;;;9.50;99.90;;;;;;5067234;28;20032;-74
2023/12/21 07:44:49;;;;;;;0.20;0.20;;;9.50;99.90;;;;;;5067841;28;20113;-74
2023/12/21 07:47:14;;;;;;;0.10;0.10;;;9.50;99.90;;;;;;5067084;28;20029;-74
2023/12/21 07:49:40;;;;;;;0.20;0.20;;;9.50;99.90;;;;;;5071439;28;20068;-74
2023/12/21 07:52:07;;;;;;;0.20;0.20;;;9.50;99.90;;;;;;5075819;28;20503;-74
2023/12/21 07:54:33;;;;;;;0.20;0.20;;;9.40;99.90;;;;;;5070689;28;20115;-74
2023/12/21 07:56:59;;;;;;;0.30;0.30;;;9.50;99.90;;;;;;5097881;28;20056;-74
2023/12/21 07:59:24;;;;;;;0.20;0.20;;;9.50;99.90;;;;;;5084803;28;20045;-74
2023/12/21 08:01:50;;;;;;;0.20;0.20;;;9.50;99.90;;;;;;5069926;28;20036;-75
2023/12/21 08:04:16;;;;;;;0.20;0.20;;;9.50;99.90;;;;;;5072267;28;20068;-74
2023/12/21 08:06:42;;;;;;;0.20;0.20;;;9.60;99.90;;;;;;5088347;28;20048;-74
2023/12/21 08:09:07;;;;;;;0.20;0.20;;;9.50;99.90;;;;;;5069144;28;20059;-74
2023/12/21 08:11:33;;;;;;;0.10;0.10;;;9.60;99.90;;;;;;5078479;28;20391;-76
2023/12/21 08:14:00;;;;;;;0.10;0.10;;;9.60;99.90;;;;;;5090054;28;20129;-74
2023/12/21 08:16:26;;;;;;;0.20;0.20;;;9.60;99.90;;;;;;5056089;28;20049;-74
2023/12/21 08:18:52;;;;;;;0.20;0.20;;;9.80;99.90;;;;;;5077348;28;20121;-74
2023/12/21 08:21:18;;;;;;;0.10;0.10;;;9.60;99.90;;;;;;5068349;28;20133;-75
2023/12/21 08:23:44;;;;;;;0.20;0.20;;;9.60;99.90;;;;;;5078104;28;20043;-75
2023/12/21 08:26:10;;;;;;;0.15;0.15;;;9.60;99.90;;;;;;5088103;28;20451;-74
2023/12/21 08:28:37;;;;;;;0.10;0.10;;;9.60;99.90;;;;;;5089341;28;20506;-74
2023/12/21 08:31:03;;;;;;;0.13;0.13;;;9.60;99.90;;;;;;5067560;28;20036;-74
2023/12/21 08:33:30;;;;;;;0.20;0.20;;;9.60;99.90;;;;;;5069373;28;20052;-74
2023/12/21 08:35:55;;;;;;;0.20;0.20;;;9.70;99.90;;;;;;5085560;28;20059;-75
2023/12/21 08:38:21;;;;;;;0.20;0.20;;;9.70;99.90;;;;;;5077101;28;20035;-75
2023/12/21 08:40:47;;;;;;;0.20;0.20;;;9.70;99.90;;;;;;5087575;28;20048;-77
2023/12/21 08:43:14;;;;;;;0.10;0.10;;;9.70;99.90;;;;;;5069591;28;20028;-75
2023/12/21 08:45:39;;;;;;;0.20;0.20;;;9.80;99.90;;;;;;5071831;28;20469;-75
2023/12/21 08:48:05;;;;;;;0.20;0.20;;;9.80;99.90;;;;;;5082154;28;20052;-75
2023/12/21 08:50:31;;;;;;;0.20;0.20;;;9.80;99.90;;;;;;5071411;28;20049;-75
2023/12/21 08:52:59;;;;;;;0.20;0.20;;;9.90;99.90;;;;;;5069275;28;20117;-75
2023/12/21 08:55:25;;;;;;;0.20;0.20;;;9.90;99.90;;;;;;5070895;28;20395;-76
2023/12/21 08:57:50;;;;;;;0.20;0.20;;;10.00;99.90;;;;;;5076802;28;20044;-75
2023/12/21 09:00:16;;;;;;;0.20;0.20;;;10.10;99.90;;;;;;5089706;28;20059;-75
2023/12/21 09:02:42;;;;;;;0.32;0.22;;;10.00;99.90;;;;;;5070166;28;20052;-74
2023/12/21 09:05:09;;;;;;;0.20;0.20;;;10.00;99.90;;;;;;5069362;28;20593;-75
2023/12/21 09:07:36;;;;;;;0.20;0.20;;;10.10;99.90;;;;;;5075529;28;20392;-74
2023/12/21 09:10:03;;;;;;;0.20;0.20;;;10.10;99.90;;;;;;5088483;28;20048;-74
2023/12/21 09:12:29;;;;;;;0.20;0.20;;;10.10;99.90;;;;;;5088219;28;20040;-75
2023/12/21 09:14:55;;;;;;;0.10;0.10;;;10.20;99.90;;;;;;5069224;28;20167;-75
2023/12/21 09:17:20;;;;;;;0.17;0.17;;;10.20;99.90;;;;;;5085020;28;20098;-78
2023/12/21 09:19:46;;;;;;;0.15;0.15;;;10.20;99.90;;;;;;5068794;28;20131;-75
2023/12/21 09:22:12;;;;;;;0.20;0.20;;;10.30;99.90;;;;;;5068354;28;20036;-74
2023/12/21 09:24:41;;;;;;;0.20;0.20;;;10.20;99.90;;;;;;5068312;28;20412;-75
2023/12/21 09:27:06;;;;;;;0.20;0.20;;;10.20;99.90;;;;;;5066801;28;20052;-75
2023/12/21 09:29:32;;;;;;;0.20;0.20;;;10.30;99.90;;;;;;5068887;28;20037;-75
2023/12/21 09:31:59;;;;;;;8.77;0.55;;;10.30;99.90;;;;;;5067697;28;20476;-75
2023/12/21 09:34:24;;;;;;;0.20;0.20;;;10.20;99.90;;;;;;5068502;28;20041;-75
2023/12/21 09:36:52;;;;;;;0.38;0.32;;;10.40;99.90;;;;;;5067322;28;20131;-76
2023/12/21 09:39:18;;;;;;;0.10;0.10;;;10.30;99.90;;;;;;5068224;28;20164;-75
2023/12/21 09:41:44;;;;;;;0.20;0.20;;;10.40;99.90;;;;;;5065690;28;20396;-75
2023/12/21 09:44:16;;;;;;;0.20;0.20;;;10.30;99.90;;;;;;5068400;28;20122;-74
2023/12/21 09:46:46;;;;;;;0.20;0.20;;;10.40;99.90;;;;;;5068387;28;20123;-76
2023/12/21 09:49:14;;;;;;;0.10;0.10;;;10.40;99.90;;;;;;5066579;28;20048;-75
2023/12/21 09:51:41;;;;;;;0.10;0.10;;;10.60;99.90;;;;;;5068604;28;20120;-75
2023/12/21 09:54:08;;;;;;;0.20;0.20;;;10.50;99.90;;;;;;5068214;28;20517;-75
2023/12/21 09:56:34;;;;;;;0.20;0.20;;;10.50;99.90;;;;;;5062580;28;20479;-78
2023/12/21 09:59:01;;;;;;;0.20;0.20;;;10.50;99.90;;;;;;5067802;28;20492;-75
2023/12/21 10:01:27;;;;;;;0.15;0.15;;;10.60;99.90;;;;;;5067933;28;20563;-75
2023/12/21 10:03:53;;;;;;;0.20;0.20;;;10.40;99.90;;;;;;5068060;28;20127;-74
2023/12/21 10:06:18;;;;;;;0.20;0.20;;;10.40;99.90;;;;;;5067885;28;20048;-75
2023/12/21 10:08:44;;;;;;;0.10;0.10;;;10.50;99.90;;;;;;5083270;28;20499;-75
2023/12/21 10:11:10;;;;;;;0.20;0.20;;;10.40;99.90;;;;;;5066560;28;20032;-74
2023/12/21 10:13:35;;;;;;;0.22;0.22;;;10.30;99.90;;;;;;5067072;28;20109;-74
2023/12/21 10:16:03;;;;;;;0.10;0.10;;;10.30;99.90;;;;;;5067075;28;20048;-74
2023/12/21 10:18:30;;;;;;;0.20;0.20;;;10.40;99.90;;;;;;5067671;28;20048;-75
2023/12/21 10:20:56;;;;;;;0.10;0.10;;;10.30;99.90;;;;;;5083243;28;20173;-74
2023/12/21 10:23:24;;;;;;;0.20;0.20;;;10.30;99.90;;;;;;5067035;28;20055;-74
2023/12/21 10:25:50;;;;;;;0.20;0.20;;;10.30;99.90;;;;;;5067961;28;20403;-74
2023/12/21 10:28:15;;;;;;;0.20;0.20;;;10.40;99.90;;;;;;5066431;28;20048;-74
2023/12/21 10:30:41;;;;;;;0.30;0.30;;;10.50;99.90;;;;;;5076708;28;20056;-76
2023/12/21 10:33:12;;;;;;;0.10;0.10;;;10.50;99.90;;;;;;5047890;28;20068;-74
2023/12/21 10:35:38;;;;;;;0.20;0.20;;;10.60;99.90;;;;;;5058638;28;20369;-75
2023/12/21 10:38:06;;;;;;;0.20;0.20;;;10.70;99.90;;;;;;5066177;28;20055;-74
2023/12/21 10:40:32;;;;;;;0.20;0.20;;;10.70;99.90;;;;;;5082414;28;20048;-74
2023/12/21 10:42:58;;;;;;;0.20;0.20;;;10.70;99.90;;;;;;5066907;28;20051;-75
2023/12/21 10:45:24;;;;;;;0.20;0.20;;;10.70;99.90;;;;;;5079103;28;20120;-75
2023/12/21 10:47:58;;;;;;;0.20;0.20;;;10.60;99.90;;;;;;5069062;28;20235;-74
2023/12/21 10:50:28;;;;;;;0.20;0.20;;;10.70;99.90;;;;;;5076412;28;20091;-75
2023/12/21 10:52:58;;;;;;;0.10;0.10;;;10.70;99.90;;;;;;5080385;28;20055;-76
2023/12/21 10:55:25;;;;;;;0.20;0.20;;;10.80;99.90;;;;;;5066381;28;20479;-76
2023/12/21 10:57:53;;;;;;;0.10;0.10;;;10.90;99.90;;;;;;5072613;28;20229;-74
2023/12/21 11:00:21;;;;;;;0.20;0.20;;;10.90;99.90;;;;;;5068345;28;20053;-74
2023/12/21 11:02:48;;;;;;;0.20;0.20;;;11.00;99.90;;;;;;5077068;28;20047;-74
2023/12/21 11:05:26;;;;;;;0.20;0.20;;;11.00;99.90;;;;;;5066938;28;20040;-75
2023/12/21 11:07:54;;;;;;;0.20;0.20;;;11.00;99.90;;;;;;5068084;28;20052;-75
2023/12/21 11:10:23;;;;;;;0.10;0.10;;;11.30;99.90;;;;;;5076818;28;20461;-75
2023/12/21 11:12:50;;;;;;;0.13;0.13;;;11.10;99.90;;;;;;5066170;28;20071;-75
2023/12/21 11:15:21;;;;;;;0.30;0.30;;;10.80;99.90;;;;;;5071258;28;20407;-75
2023/12/21 11:17:52;;;;;;;0.10;0.10;;;10.90;99.90;;;;;;5083700;28;20052;-75
2023/12/21 11:20:21;;;;;;;0.10;0.10;;;10.90;99.90;;;;;;5081258;28;20492;-76
2023/12/21 11:22:47;;;;;;;0.20;0.20;;;10.80;99.90;;;;;;5068500;28;20378;-76
2023/12/21 11:25:13;;;;;;;1.02;0.35;;;10.80;99.90;;;;;;5082801;28;20055;-76
2023/12/21 11:27:42;;;;;;;0.20;0.20;;;10.80;99.90;;;;;;5071448;28;20181;-75
2023/12/21 11:30:14;;;;;;;0.20;0.20;;;10.80;99.90;;;;;;5075049;28;20384;-76
2023/12/21 11:32:44;;;;;;;0.20;0.20;;;10.80;99.90;;;;;;5073119;28;20173;-76
2023/12/21 11:35:19;;;;;;;0.10;0.10;;;10.80;99.90;;;;;;5091441;28;20052;-75
2023/12/21 11:37:49;;;;;;;0.20;0.20;;;10.80;99.90;;;;;;5090709;28;20051;-75
2023/12/21 11:40:17;;;;;;;0.20;0.20;;;10.80;99.90;;;;;;5068421;28;20127;-76
2023/12/21 11:42:48;;;;;;;0.10;0.10;;;10.80;99.90;;;;;;5071267;28;20429;-75
2023/12/21 11:45:24;;;;;;;0.20;0.20;;;11.00;99.90;;;;;;5070086;28;20086;-75
2023/12/21 11:47:54;;;;;;;0.40;0.30;;;10.90;99.90;;;;;;5068943;28;20340;-76
2023/12/21 11:50:21;;;;;;;0.20;0.20;;;10.90;99.90;;;;;;5087333;28;20094;-76
2023/12/21 11:52:51;;;;;;;0.20;0.20;;;10.90;99.90;;;;;;5072195;28;20055;-76
2023/12/21 11:55:26;;;;;;;0.20;0.20;;;11.00;99.90;;;;;;5069225;28;20048;-76
2023/12/21 11:58:16;;;;;;;0.20;0.20;;;10.90;99.90;;;;;;5066253;28;20044;-78
2023/12/21 12:00:52;;;;;;;0.20;0.20;;;11.00;99.90;;;;;;5071413;28;20053;-75
2023/12/21 12:03:19;;;;;;;0.10;0.10;;;11.00;99.90;;;;;;5071715;28;20045;-78
2023/12/21 12:05:45;;;;;;;0.10;0.10;;;11.10;99.90;;;;;;5085523;28;20044;-75
2023/12/21 12:08:11;;;;;;;0.45;0.35;;;11.10;99.90;;;;;;5088253;28;20051;-77
2023/12/21 12:10:37;;;;;;;0.20;0.20;;;11.20;99.90;;;;;;5075644;28;20095;-76
2023/12/21 12:13:03;;;;;;;0.10;0.10;;;11.10;99.90;;;;;;5072175;28;20072;-77
2023/12/21 12:15:31;;;;;;;0.20;0.20;;;11.20;99.90;;;;;;5087203;28;20063;-77
2023/12/21 12:17:57;;;;;;;0.13;0.13;;;11.20;99.90;;;;;;5081562;28;20048;-76
2023/12/21 12:20:22;;;;;;;0.30;0.30;;;11.30;99.90;;;;;;5082448;28;20040;-76
2023/12/21 12:22:55;;;;;;;0.20;0.20;;;11.20;99.90;;;;;;5069506;28;20131;-76
2023/12/21 12:25:20;;;;;;;0.20;0.20;;;11.20;99.90;;;;;;5087668;28;20109;-76
2023/12/21 12:27:49;;;;;;;0.20;0.20;;;11.20;99.90;;;;;;5090450;28;20044;-77
2023/12/21 12:30:15;;;;;;;0.10;0.10;;;11.20;99.90;;;;;;5087317;28;20411;-76
2023/12/21 12:32:42;;;;;;;0.10;0.10;;;11.20;99.90;;;;;;5082927;28;20515;-77
2023/12/21 12:35:12;;;;;;;0.13;0.13;;;11.10;99.90;;;;;;5085410;28;20044;-76
2023/12/21 12:37:37;;;;;;;0.20;0.20;;;11.20;99.90;;;;;;5090828;28;20052;-75
2023/12/21 12:40:05;;;;;;;0.20;0.20;;;11.10;99.90;;;;;;5080290;28;20056;-76
2023/12/21 12:42:31;;;;;;;0.17;0.17;;;10.90;99.90;;;;;;5071071;28;20044;-78
2023/12/21 12:44:59;;;;;;;0.20;0.20;;;10.40;99.90;;;;;;5068911;28;20578;-77
2023/12/21 12:47:26;;;;;;;0.20;0.20;;;9.80;99.90;;;;;;5071217;28;20055;-78